sensor_id;sensor_type;location;lat;lon;timestamp;pressure;altitude;pressure_sealevel;temperature;humidity
24746;BME280;12845;52.042;6.838;2023-05-14T00:00:47;-18439.66;;;15.31;100.00
24746;BME280;12845;52.042;6.838;2023-05-14T00:03:12;-18434.47;;;15.11;100.00
24746;BME280;12845;52.042;6.838;2023-05-14T00:05:37;-18430.78;;;14.98;100.00
24746;BME280;12845;52.042;6.838;2023-05-14T00:08:02;-18437.06;;;15.21;100.00
24746;BME280;12845;52.042;6.838;2023-05-14T00:10:28;-18435.84;;;15.17;100.00
24746;BME280;12845;52.042;6.838;2023-05-14T00:12:53;-18437.19;;;15.22;100.00
24746;BME280;12845;52.042;6.838;2023-05-14T00:15:18;-18437.34;;;15.22;100.00
24746;BME280;12845;52.042;6.838;2023-05-14T00:17:43;-18436.50;;;15.19;100.00
24746;BME280;12845;52.042;6.838;2023-05-14T00:20:09;-18435.00;;;15.14;100.00
24746;BME280;12845;52.042;6.838;2023-05-14T00:22:36;-18429.94;;;14.95;100.00
24746;BME280;12845;52.042;6.838;2023-05-14T00:25:01;-18426.81;;;14.83;100.00
24746;BME280;12845;52.042;6.838;2023-05-14T00:27:27;-18424.47;;;14.74;100.00
24746;BME280;12845;52.042;6.838;2023-05-14T00:29:52;-18427.06;;;14.84;100.00
24746;BME280;12845;52.042;6.838;2023-05-14T00:32:17;-18427.34;;;14.85;100.00
24746;BME280;12845;52.042;6.838;2023-05-14T00:34:42;-18424.47;;;14.74;100.00
24746;BME280;12845;52.042;6.838;2023-05-14T00:37:08;-18424.59;;;14.75;100.00
24746;BME280;12845;52.042;6.838;2023-05-14T00:39:33;-18427.75;;;14.86;100.00
24746;BME280;12845;52.042;6.838;2023-05-14T00:41:58;-18426.25;;;14.81;100.00
24746;BME280;12845;52.042;6.838;2023-05-14T00:44:24;-18428.72;;;14.90;100.00
24746;BME280;12845;52.042;6.838;2023-05-14T00:46:49;-18433.63;;;15.08;100.00
24746;BME280;12845;52.042;6.838;2023-05-14T00:49:15;-18433.09;;;15.06;100.00
24746;BME280;12845;52.042;6.838;2023-05-14T00:51:40;-18429.81;;;14.94;100.00
24746;BME280;12845;52.042;6.838;2023-05-14T00:54:06;-18429.00;;;14.91;100.00
24746;BME280;12845;52.042;6.838;2023-05-14T00:56:33;-18432.53;;;15.04;100.00
24746;BME280;12845;52.042;6.838;2023-05-14T00:58:58;-18430.09;;;14.95;100.00
24746;BME280;12845;52.042;6.838;2023-05-14T01:01:23;-18410.78;;;14.23;100.00
24746;BME280;12845;52.042;6.838;2023-05-14T01:03:48;-18407.63;;;14.11;100.00
24746;BME280;12845;52.042;6.838;2023-05-14T01:16:48;-18413.78;;;14.34;100.00
24746;BME280;12845;52.042;6.838;2023-05-14T01:19:28;-18413.38;;;14.33;100.00
24746;BME280;12845;52.042;6.838;2023-05-14T01:21:57;-18414.34;;;14.36;100.00
24746;BME280;12845;52.042;6.838;2023-05-14T01:24:22;-18417.34;;;14.48;100.00
24746;BME280;12845;52.042;6.838;2023-05-14T01:26:47;-18415.44;;;14.40;100.00
24746;BME280;12845;52.042;6.838;2023-05-14T01:29:20;-18409.81;;;14.19;100.00
24746;BME280;12845;52.042;6.838;2023-05-14T01:31:46;-18405.16;;;14.02;100.00
24746;BME280;12845;52.042;6.838;2023-05-14T01:34:13;-18404.75;;;14.00;100.00
24746;BME280;12845;52.042;6.838;2023-05-14T01:36:39;-18398.88;;;13.79;100.00
24746;BME280;12845;52.042;6.838;2023-05-14T01:39:05;-18398.72;;;13.78;100.00
24746;BME280;12845;52.042;6.838;2023-05-14T01:41:33;-18402.41;;;13.92;100.00
24746;BME280;12845;52.042;6.838;2023-05-14T01:43:59;-18405.03;;;14.02;100.00
24746;BME280;12845;52.042;6.838;2023-05-14T01:46:24;-18410.63;;;14.22;100.00
24746;BME280;12845;52.042;6.838;2023-05-14T01:48:49;-18410.09;;;14.20;100.00
24746;BME280;12845;52.042;6.838;2023-05-14T01:51:15;-18405.44;;;14.03;100.00
24746;BME280;12845;52.042;6.838;2023-05-14T01:53:40;-18400.78;;;13.86;100.00
24746;BME280;12845;52.042;6.838;2023-05-14T01:56:05;-18404.75;;;14.00;100.00
24746;BME280;12845;52.042;6.838;2023-05-14T01:58:31;-18408.44;;;14.14;100.00
24746;BME280;12845;52.042;6.838;2023-05-14T02:00:56;-18405.16;;;14.02;100.00
24746;BME280;12845;52.042;6.838;2023-05-14T02:03:21;-18404.88;;;14.01;100.00
24746;BME280;12845;52.042;6.838;2023-05-14T02:05:46;-18403.66;;;13.96;100.00
24746;BME280;12845;52.042;6.838;2023-05-14T02:08:11;-18407.22;;;14.10;100.00
24746;BME280;12845;52.042;6.838;2023-05-14T02:10:37;-18409.28;;;14.17;100.00
24746;BME280;12845;52.042;6.838;2023-05-14T02:13:02;-18408.19;;;14.13;100.00
24746;BME280;12845;52.042;6.838;2023-05-14T02:15:28;-18401.19;;;13.87;100.00
24746;BME280;12845;52.042;6.838;2023-05-14T02:17:53;-18392.41;;;13.54;100.00
24746;BME280;12845;52.042;6.838;2023-05-14T02:20:18;-18390.38;;;13.47;100.00
24746;BME280;12845;52.042;6.838;2023-05-14T02:22:43;-18393.66;;;13.59;100.00
24746;BME280;12845;52.042;6.838;2023-05-14T02:25:12;-18394.22;;;13.61;100.00
24746;BME280;12845;52.042;6.838;2023-05-14T02:27:37;-18398.19;;;13.76;100.00
24746;BME280;12845;52.042;6.838;2023-05-14T02:30:03;-18387.91;;;13.38;100.00
24746;BME280;12845;52.042;6.838;2023-05-14T02:32:28;-18383.22;;;13.20;100.00
24746;BME280;12845;52.042;6.838;2023-05-14T02:34:53;-18383.50;;;13.21;100.00
24746;BME280;12845;52.042;6.838;2023-05-14T02:37:18;-18387.34;;;13.36;100.00
24746;BME280;12845;52.042;6.838;2023-05-14T02:39:44;-18379.81;;;13.07;100.00
24746;BME280;12845;52.042;6.838;2023-05-14T02:42:09;-18379.13;;;13.05;100.00
24746;BME280;12845;52.042;6.838;2023-05-14T02:44:34;-18379.00;;;13.04;100.00
24746;BME280;12845;52.042;6.838;2023-05-14T02:47:00;-18378.84;;;13.04;100.00
24746;BME280;12845;52.042;6.838;2023-05-14T02:49:25;-18378.56;;;13.03;100.00
24746;BME280;12845;52.042;6.838;2023-05-14T02:51:50;-18374.19;;;12.86;100.00
24746;BME280;12845;52.042;6.838;2023-05-14T02:54:15;-18372.69;;;12.81;100.00
24746;BME280;12845;52.042;6.838;2023-05-14T02:56:41;-18373.63;;;12.84;100.00
24746;BME280;12845;52.042;6.838;2023-05-14T02:59:06;-18373.22;;;12.83;100.00
24746;BME280;12845;52.042;6.838;2023-05-14T03:01:31;-18374.75;;;12.88;100.00
24746;BME280;12845;52.042;6.838;2023-05-14T03:03:56;-18373.63;;;12.84;100.00
24746;BME280;12845;52.042;6.838;2023-05-14T03:06:22;-18370.91;;;12.74;100.00
24746;BME280;12845;52.042;6.838;2023-05-14T03:08:47;-18368.72;;;12.66;100.00
24746;BME280;12845;52.042;6.838;2023-05-14T03:11:12;-18368.28;;;12.64;100.00
24746;BME280;12845;52.042;6.838;2023-05-14T03:13:37;-18366.66;;;12.58;100.00
24746;BME280;12845;52.042;6.838;2023-05-14T03:16:03;-18370.22;;;12.72;100.00
24746;BME280;12845;52.042;6.838;2023-05-14T03:18:28;-18366.50;;;12.58;100.00
24746;BME280;12845;52.042;6.838;2023-05-14T03:20:54;-18366.91;;;12.59;100.00
24746;BME280;12845;52.042;6.838;2023-05-14T03:23:19;-18364.59;;;12.51;100.00
24746;BME280;12845;52.042;6.838;2023-05-14T03:25:45;-18366.50;;;12.58;100.00
24746;BME280;12845;52.042;6.838;2023-05-14T03:28:10;-18365.13;;;12.53;100.00
24746;BME280;12845;52.042;6.838;2023-05-14T03:30:35;-18362.53;;;12.43;100.00
24746;BME280;12845;52.042;6.838;2023-05-14T03:33:00;-18364.31;;;12.50;100.00
24746;BME280;12845;52.042;6.838;2023-05-14T03:35:26;-18366.50;;;12.58;100.00
24746;BME280;12845;52.042;6.838;2023-05-14T03:37:51;-18360.47;;;12.35;100.00
24746;BME280;12845;52.042;6.838;2023-05-14T03:40:17;-18361.56;;;12.39;100.00
24746;BME280;12845;52.042;6.838;2023-05-14T03:42:42;-18360.19;;;12.34;100.00
24746;BME280;12845;52.042;6.838;2023-05-14T03:45:07;-18364.03;;;12.49;100.00
24746;BME280;12845;52.042;6.838;2023-05-14T03:47:33;-18363.22;;;12.46;100.00
24746;BME280;12845;52.042;6.838;2023-05-14T03:49:58;-18358.56;;;12.28;100.00
24746;BME280;12845;52.042;6.838;2023-05-14T03:52:23;-18359.09;;;12.30;100.00
24746;BME280;12845;52.042;6.838;2023-05-14T03:54:49;-18360.47;;;12.35;100.00
24746;BME280;12845;52.042;6.838;2023-05-14T03:57:14;-18356.78;;;12.22;100.00
24746;BME280;12845;52.042;6.838;2023-05-14T03:59:39;-18357.31;;;12.24;100.00
24746;BME280;12845;52.042;6.838;2023-05-14T04:02:05;-18358.16;;;12.27;100.00
24746;BME280;12845;52.042;6.838;2023-05-14T04:04:31;-18355.81;;;12.18;100.00
24746;BME280;12845;52.042;6.838;2023-05-14T04:06:56;-18360.19;;;12.34;100.00
24746;BME280;12845;52.042;6.838;2023-05-14T04:09:21;-18357.72;;;12.25;100.00
24746;BME280;12845;52.042;6.838;2023-05-14T04:11:47;-18357.19;;;12.23;100.00
24746;BME280;12845;52.042;6.838;2023-05-14T04:14:12;-18361.03;;;12.37;100.00
24746;BME280;12845;52.042;6.838;2023-05-14T04:16:37;-18360.88;;;12.37;100.00
24746;BME280;12845;52.042;6.838;2023-05-14T04:19:03;-18360.19;;;12.34;100.00
24746;BME280;12845;52.042;6.838;2023-05-14T04:21:30;-18359.66;;;12.32;100.00
24746;BME280;12845;52.042;6.838;2023-05-14T04:23:56;-18363.22;;;12.46;100.00
24746;BME280;12845;52.042;6.838;2023-05-14T04:26:21;-18363.91;;;12.48;100.00
24746;BME280;12845;52.042;6.838;2023-05-14T04:28:46;-18369.25;;;12.68;100.00
24746;BME280;12845;52.042;6.838;2023-05-14T04:31:12;-18360.34;;;12.35;100.00
24746;BME280;12845;52.042;6.838;2023-05-14T04:33:37;-18356.63;;;12.21;100.00
24746;BME280;12845;52.042;6.838;2023-05-14T04:36:03;-18354.03;;;12.11;100.00
24746;BME280;12845;52.042;6.838;2023-05-14T04:38:29;-18356.50;;;12.21;100.00
24746;BME280;12845;52.042;6.838;2023-05-14T04:40:55;-18358.84;;;12.29;100.00
24746;BME280;12845;52.042;6.838;2023-05-14T04:43:20;-18358.97;;;12.30;100.00
24746;BME280;12845;52.042;6.838;2023-05-14T04:45:46;-18360.63;;;12.36;100.00
24746;BME280;12845;52.042;6.838;2023-05-14T04:48:11;-18358.69;;;12.29;100.00
24746;BME280;12845;52.042;6.838;2023-05-14T04:50:36;-18356.63;;;12.21;100.00
24746;BME280;12845;52.042;6.838;2023-05-14T04:53:01;-18362.41;;;12.42;100.00
24746;BME280;12845;52.042;6.838;2023-05-14T04:55:27;-18358.41;;;12.28;100.00
24746;BME280;12845;52.042;6.838;2023-05-14T04:57:52;-18361.03;;;12.37;100.00
24746;BME280;12845;52.042;6.838;2023-05-14T05:00:17;-18362.41;;;12.42;100.00
24746;BME280;12845;52.042;6.838;2023-05-14T05:02:43;-18365.97;;;12.56;100.00
24746;BME280;12845;52.042;6.838;2023-05-14T05:05:08;-18367.88;;;12.63;100.00
24746;BME280;12845;52.042;6.838;2023-05-14T05:07:34;-18371.03;;;12.75;100.00
24746;BME280;12845;52.042;6.838;2023-05-14T05:09:59;-18371.31;;;12.76;100.00
24746;BME280;12845;52.042;6.838;2023-05-14T05:12:24;-18374.31;;;12.87;100.00
24746;BME280;12845;52.042;6.838;2023-05-14T05:14:50;-18367.34;;;12.61;100.00
24746;BME280;12845;52.042;6.838;2023-05-14T05:17:15;-18368.44;;;12.65;100.00
24746;BME280;12845;52.042;6.838;2023-05-14T05:19:40;-18371.88;;;12.78;100.00
24746;BME280;12845;52.042;6.838;2023-05-14T05:22:06;-18369.53;;;12.69;100.00
24746;BME280;12845;52.042;6.838;2023-05-14T05:24:31;-18366.66;;;12.58;100.00
24746;BME280;12845;52.042;6.838;2023-05-14T05:26:56;-18367.19;;;12.60;100.00
24746;BME280;12845;52.042;6.838;2023-05-14T05:29:22;-18370.91;;;12.74;100.00
24746;BME280;12845;52.042;6.838;2023-05-14T05:31:47;-18369.81;;;12.70;100.00
24746;BME280;12845;52.042;6.838;2023-05-14T05:34:13;-18378.03;;;13.01;100.00
24746;BME280;12845;52.042;6.838;2023-05-14T05:36:38;-18376.53;;;12.95;100.00
24746;BME280;12845;52.042;6.838;2023-05-14T05:39:03;-18371.59;;;12.77;100.00
24746;BME280;12845;52.042;6.838;2023-05-14T05:41:28;-18379.41;;;13.06;100.00
24746;BME280;12845;52.042;6.838;2023-05-14T05:43:54;-18387.06;;;13.35;100.00
24746;BME280;12845;52.042;6.838;2023-05-14T05:46:19;-18382.69;;;13.18;100.00
24746;BME280;12845;52.042;6.838;2023-05-14T05:48:47;-18386.81;;;13.34;100.00
24746;BME280;12845;52.042;6.838;2023-05-14T05:51:12;-18385.97;;;13.30;100.00
24746;BME280;12845;52.042;6.838;2023-05-14T05:53:38;-18393.78;;;13.60;100.00
24746;BME280;12845;52.042;6.838;2023-05-14T05:56:03;-18400.66;;;13.85;100.00
24746;BME280;12845;52.042;6.838;2023-05-14T05:58:28;-18402.16;;;13.91;100.00
24746;BME280;12845;52.042;6.838;2023-05-14T06:00:54;-18401.88;;;13.90;100.00
24746;BME280;12845;52.042;6.838;2023-05-14T06:03:21;-18405.16;;;14.02;100.00
24746;BME280;12845;52.042;6.838;2023-05-14T06:05:47;-18410.63;;;14.22;100.00
24746;BME280;12845;52.042;6.838;2023-05-14T06:08:12;-18408.72;;;14.15;100.00
24746;BME280;12845;52.042;6.838;2023-05-14T06:10:37;-18411.59;;;14.26;100.00
24746;BME280;12845;52.042;6.838;2023-05-14T06:13:02;-18412.28;;;14.29;100.00
24746;BME280;12845;52.042;6.838;2023-05-14T06:15:28;-18418.03;;;14.50;100.00
24746;BME280;12845;52.042;6.838;2023-05-14T06:17:53;-18415.28;;;14.40;100.00
24746;BME280;12845;52.042;6.838;2023-05-14T06:20:18;-18408.72;;;14.15;100.00
24746;BME280;12845;52.042;6.838;2023-05-14T06:22:44;-18411.06;;;14.24;100.00
24746;BME280;12845;52.042;6.838;2023-05-14T06:25:09;-18414.19;;;14.36;100.00
24746;BME280;12845;52.042;6.838;2023-05-14T06:27:34;-18415.72;;;14.41;100.00
24746;BME280;12845;52.042;6.838;2023-05-14T06:30:00;-18415.97;;;14.42;100.00
24746;BME280;12845;52.042;6.838;2023-05-14T06:32:25;-18418.31;;;14.51;100.00
24746;BME280;12845;52.042;6.838;2023-05-14T06:34:50;-18424.34;;;14.74;100.00
24746;BME280;12845;52.042;6.838;2023-05-14T06:37:15;-18430.34;;;14.96;100.00
24746;BME280;12845;52.042;6.838;2023-05-14T06:39:41;-18432.81;;;15.05;100.00
24746;BME280;12845;52.042;6.838;2023-05-14T06:42:14;-18434.47;;;15.11;100.00
24746;BME280;12845;52.042;6.838;2023-05-14T06:44:39;-18432.13;;;15.03;100.00
24746;BME280;12845;52.042;6.838;2023-05-14T06:47:05;-18437.75;;;15.24;100.00
24746;BME280;12845;52.042;6.838;2023-05-14T06:49:32;-18440.75;;;15.35;100.00
24746;BME280;12845;52.042;6.838;2023-05-14T06:51:58;-18449.22;;;15.67;100.00
24746;BME280;12845;52.042;6.838;2023-05-14T06:54:23;-18458.81;;;16.02;100.00
24746;BME280;12845;52.042;6.838;2023-05-14T06:56:49;-18455.81;;;15.91;100.00
24746;BME280;12845;52.042;6.838;2023-05-14T06:59:14;-18460.84;;;16.10;100.00
24746;BME280;12845;52.042;6.838;2023-05-14T07:01:39;-18465.38;;;16.27;100.00
24746;BME280;12845;52.042;6.838;2023-05-14T07:04:04;-18464.56;;;16.24;100.00
24746;BME280;12845;52.042;6.838;2023-05-14T07:06:30;-18469.88;;;16.44;100.00
24746;BME280;12845;52.042;6.838;2023-05-14T07:08:56;-18477.25;;;16.72;100.00
24746;BME280;12845;52.042;6.838;2023-05-14T07:11:21;-18485.88;;;17.04;100.00
24746;BME280;12845;52.042;6.838;2023-05-14T07:13:47;-18483.94;;;16.97;100.00
24746;BME280;12845;52.042;6.838;2023-05-14T07:16:12;-18486.13;;;17.05;100.00
24746;BME280;12845;52.042;6.838;2023-05-14T07:18:37;-18483.69;;;16.96;100.00
24746;BME280;12845;52.042;6.838;2023-05-14T07:21:02;-18487.50;;;17.10;100.00
24746;BME280;12845;52.042;6.838;2023-05-14T07:23:30;-18494.88;;;17.37;100.00
24746;BME280;12845;52.042;6.838;2023-05-14T07:25:55;-18499.25;;;17.54;100.00
24746;BME280;12845;52.042;6.838;2023-05-14T07:28:20;-18498.16;;;17.50;100.00
24746;BME280;12845;52.042;6.838;2023-05-14T07:30:46;-18503.88;;;17.71;100.00
24746;BME280;12845;52.042;6.838;2023-05-14T07:33:11;-18510.44;;;17.96;100.00
24746;BME280;12845;52.042;6.838;2023-05-14T07:35:36;-18497.06;;;17.46;100.00
24746;BME280;12845;52.042;6.838;2023-05-14T07:38:02;-18503.63;;;17.70;100.00
24746;BME280;12845;52.042;6.838;2023-05-14T07:40:29;-18511.81;;;18.01;100.00
24746;BME280;12845;52.042;6.838;2023-05-14T07:42:54;-18508.38;;;17.88;100.00
24746;BME280;12845;52.042;6.838;2023-05-14T07:45:20;-18515.34;;;18.14;100.00
24746;BME280;12845;52.042;6.838;2023-05-14T07:47:45;-18518.63;;;18.26;100.00
24746;BME280;12845;52.042;6.838;2023-05-14T07:50:10;-18517.66;;;18.23;100.00
24746;BME280;12845;52.042;6.838;2023-05-14T07:52:35;-18519.72;;;18.31;100.00
24746;BME280;12845;52.042;6.838;2023-05-14T07:55:01;-18523.94;;;18.46;100.00
24746;BME280;12845;52.042;6.838;2023-05-14T07:57:27;-18528.72;;;18.64;100.00
24746;BME280;12845;52.042;6.838;2023-05-14T07:59:52;-18534.31;;;18.85;100.00
24746;BME280;12845;52.042;6.838;2023-05-14T08:02:17;-18533.22;;;18.81;100.00
24746;BME280;12845;52.042;6.838;2023-05-14T08:04:42;-18529.53;;;18.67;100.00
24746;BME280;12845;52.042;6.838;2023-05-14T08:07:08;-18523.81;;;18.46;100.00
24746;BME280;12845;52.042;6.838;2023-05-14T08:09:33;-18530.75;;;18.72;100.00
24746;BME280;12845;52.042;6.838;2023-05-14T08:11:58;-18528.44;;;18.63;100.00
24746;BME280;12845;52.042;6.838;2023-05-14T08:14:24;-18536.22;;;18.92;100.00
24746;BME280;12845;52.042;6.838;2023-05-14T08:16:49;-18547.25;;;19.34;100.00
24746;BME280;12845;52.042;6.838;2023-05-14T08:19:14;-18547.94;;;19.36;100.00
24746;BME280;12845;52.042;6.838;2023-05-14T08:21:39;-18546.97;;;19.33;100.00
24746;BME280;12845;52.042;6.838;2023-05-14T08:24:05;-18545.06;;;19.26;100.00
24746;BME280;12845;52.042;6.838;2023-05-14T08:26:30;-18546.44;;;19.31;100.00
24746;BME280;12845;52.042;6.838;2023-05-14T08:28:56;-18547.66;;;19.35;100.00
24746;BME280;12845;52.042;6.838;2023-05-14T08:31:21;-18554.88;;;19.63;100.00
24746;BME280;12845;52.042;6.838;2023-05-14T08:33:46;-18547.78;;;19.36;100.00
24746;BME280;12845;52.042;6.838;2023-05-14T08:36:12;-18548.47;;;19.38;100.00
24746;BME280;12845;52.042;6.838;2023-05-14T08:38:37;-18550.25;;;19.45;100.00
24746;BME280;12845;52.042;6.838;2023-05-14T08:41:03;-18551.06;;;19.48;100.00
24746;BME280;12845;52.042;6.838;2023-05-14T08:43:30;-18566.59;;;20.06;100.00
24746;BME280;12845;52.042;6.838;2023-05-14T08:46:01;-18575.84;;;20.41;100.00
24746;BME280;12845;52.042;6.838;2023-05-14T08:48:30;-18577.47;;;20.47;100.00
24746;BME280;12845;52.042;6.838;2023-05-14T08:50:56;-18577.75;;;20.48;99.88
24746;BME280;12845;52.042;6.838;2023-05-14T08:53:22;-18583.47;;;20.70;97.88
24746;BME280;12845;52.042;6.838;2023-05-14T08:55:47;-18585.38;;;20.77;98.59
24746;BME280;12845;52.042;6.838;2023-05-14T08:58:14;-18578.44;;;20.51;100.00
24746;BME280;12845;52.042;6.838;2023-05-14T09:00:39;-18585.91;;;20.79;97.85
24746;BME280;12845;52.042;6.838;2023-05-14T09:03:04;-18590.81;;;20.98;88.28
24746;BME280;12845;52.042;6.838;2023-05-14T09:05:31;-18588.38;;;20.88;91.02
24746;BME280;12845;52.042;6.838;2023-05-14T09:07:57;-18589.59;;;20.93;80.60
24746;BME280;12845;52.042;6.838;2023-05-14T09:10:22;-18582.25;;;20.65;86.14
24746;BME280;12845;52.042;6.838;2023-05-14T09:12:47;-18579.66;;;20.56;79.91
24746;BME280;12845;52.042;6.838;2023-05-14T09:15:13;-18582.09;;;20.65;85.09
24746;BME280;12845;52.042;6.838;2023-05-14T09:17:38;-18587.56;;;20.85;87.46
24746;BME280;12845;52.042;6.838;2023-05-14T09:20:03;-18589.19;;;20.91;79.07
24746;BME280;12845;52.042;6.838;2023-05-14T09:22:29;-18590.94;;;20.98;73.77
24746;BME280;12845;52.042;6.838;2023-05-14T09:25:04;-18597.22;;;21.22;84.00
24746;BME280;12845;52.042;6.838;2023-05-14T09:27:30;-18601.84;;;21.39;84.45
24746;BME280;12845;52.042;6.838;2023-05-14T09:30:02;-18601.16;;;21.36;61.46
24746;BME280;12845;52.042;6.838;2023-05-14T09:32:33;-18607.69;;;21.61;64.38
24746;BME280;12845;52.042;6.838;2023-05-14T09:34:59;-18611.22;;;21.74;66.63
24746;BME280;12845;52.042;6.838;2023-05-14T09:37:34;-18617.59;;;21.98;68.57
24746;BME280;12845;52.042;6.838;2023-05-14T09:40:04;-18625.06;;;22.26;75.09
24746;BME280;12845;52.042;6.838;2023-05-14T09:42:29;-18620.31;;;22.08;63.64
24746;BME280;12845;52.042;6.838;2023-05-14T09:44:55;-18623.56;;;22.21;64.90
24746;BME280;12845;52.042;6.838;2023-05-14T09:47:20;-18621.81;;;22.14;61.34
24746;BME280;12845;52.042;6.838;2023-05-14T09:49:47;-18624.25;;;22.23;58.27
24746;BME280;12845;52.042;6.838;2023-05-14T09:52:12;-18618.94;;;22.03;55.50
24746;BME280;12845;52.042;6.838;2023-05-14T09:54:37;-18615.56;;;21.91;57.83
24746;BME280;12845;52.042;6.838;2023-05-14T09:57:04;-18620.44;;;22.09;57.41
24746;BME280;12845;52.042;6.838;2023-05-14T09:59:29;-18617.19;;;21.97;55.41
24746;BME280;12845;52.042;6.838;2023-05-14T10:01:54;-18622.06;;;22.15;71.08
24746;BME280;12845;52.042;6.838;2023-05-14T10:04:21;-18625.22;;;22.27;67.24
24746;BME280;12845;52.042;6.838;2023-05-14T10:06:50;-18627.09;;;22.34;57.17
24746;BME280;12845;52.042;6.838;2023-05-14T10:09:17;-18624.81;;;22.25;61.21
24746;BME280;12845;52.042;6.838;2023-05-14T10:11:43;-18626.16;;;22.30;58.26
24746;BME280;12845;52.042;6.838;2023-05-14T10:14:17;-18634.16;;;22.61;57.74
24746;BME280;12845;52.042;6.838;2023-05-14T10:16:48;-18631.59;;;22.51;57.83
24746;BME280;12845;52.042;6.838;2023-05-14T10:19:14;-18630.22;;;22.46;66.95
24746;BME280;12845;52.042;6.838;2023-05-14T10:21:40;-18636.59;;;22.70;60.04
24746;BME280;12845;52.042;6.838;2023-05-14T10:24:07;-18640.00;;;22.83;55.19
24746;BME280;12845;52.042;6.838;2023-05-14T10:26:35;-18640.94;;;22.86;50.68
24746;BME280;12845;52.042;6.838;2023-05-14T10:29:11;-18645.72;;;23.04;52.25
24746;BME280;12845;52.042;6.838;2023-05-14T10:31:46;-18649.50;;;23.18;62.50
24746;BME280;12845;52.042;6.838;2023-05-14T10:34:30;-18646.38;;;23.07;58.53
24746;BME280;12845;52.042;6.838;2023-05-14T10:37:00;-18653.31;;;23.33;54.75
24746;BME280;12845;52.042;6.838;2023-05-14T10:42:14;-18664.97;;;23.77;52.91
24746;BME280;12845;52.042;6.838;2023-05-14T10:44:53;-18672.16;;;24.04;51.25
24746;BME280;12845;52.042;6.838;2023-05-14T10:47:20;-18675.53;;;24.17;51.44
24746;BME280;12845;52.042;6.838;2023-05-14T10:49:45;-18681.50;;;24.39;49.76
24746;BME280;12845;52.042;6.838;2023-05-14T10:52:17;-18684.34;;;24.50;48.74
24746;BME280;12845;52.042;6.838;2023-05-14T10:54:59;-18686.66;;;24.59;47.59
24746;BME280;12845;52.042;6.838;2023-05-14T10:57:25;-18689.63;;;24.70;44.98
24746;BME280;12845;52.042;6.838;2023-05-14T10:59:52;-18693.44;;;24.84;41.76
24746;BME280;12845;52.042;6.838;2023-05-14T11:02:31;-18696.69;;;24.96;41.22
24746;BME280;12845;52.042;6.838;2023-05-14T11:04:59;-18701.56;;;25.15;40.98
24746;BME280;12845;52.042;6.838;2023-05-14T11:07:34;-18706.97;;;25.35;40.92
24746;BME280;12845;52.042;6.838;2023-05-14T11:10:01;-18710.22;;;25.48;41.22
24746;BME280;12845;52.042;6.838;2023-05-14T11:12:27;-18712.53;;;25.56;41.03
24746;BME280;12845;52.042;6.838;2023-05-14T11:14:52;-18714.56;;;25.64;40.40
24746;BME280;12845;52.042;6.838;2023-05-14T11:17:17;-18717.25;;;25.74;40.51
24746;BME280;12845;52.042;6.838;2023-05-14T11:19:43;-18720.22;;;25.85;40.16
24746;BME280;12845;52.042;6.838;2023-05-14T11:22:10;-18718.59;;;25.79;39.49
24746;BME280;12845;52.042;6.838;2023-05-14T11:24:37;-18725.09;;;26.04;38.61
24746;BME280;12845;52.042;6.838;2023-05-14T11:27:03;-18717.53;;;25.75;39.53
24746;BME280;12845;52.042;6.838;2023-05-14T11:29:28;-18721.31;;;25.90;39.94
24746;BME280;12845;52.042;6.838;2023-05-14T11:31:53;-18723.06;;;25.96;38.69
24746;BME280;12845;52.042;6.838;2023-05-14T11:34:19;-18716.84;;;25.73;39.10
24746;BME280;12845;52.042;6.838;2023-05-14T11:36:44;-18718.59;;;25.79;38.91
24746;BME280;12845;52.042;6.838;2023-05-14T11:39:16;-18721.03;;;25.88;38.82
24746;BME280;12845;52.042;6.838;2023-05-14T11:41:44;-18721.72;;;25.91;39.32
24746;BME280;12845;52.042;6.838;2023-05-14T11:44:10;-18725.38;;;26.05;38.80
24746;BME280;12845;52.042;6.838;2023-05-14T11:46:35;-18727.53;;;26.13;38.50
24746;BME280;12845;52.042;6.838;2023-05-14T11:49:02;-18727.00;;;26.11;39.56
24746;BME280;12845;52.042;6.838;2023-05-14T11:51:28;-18729.44;;;26.20;39.74
24746;BME280;12845;52.042;6.838;2023-05-14T11:53:53;-18731.84;;;26.29;38.87
24746;BME280;12845;52.042;6.838;2023-05-14T11:56:19;-18734.03;;;26.38;38.91
24746;BME280;12845;52.042;6.838;2023-05-14T11:58:48;-18735.78;;;26.44;38.57
24746;BME280;12845;52.042;6.838;2023-05-14T12:01:13;-18738.75;;;26.55;38.54
24746;BME280;12845;52.042;6.838;2023-05-14T12:03:39;-18741.47;;;26.66;38.49
24746;BME280;12845;52.042;6.838;2023-05-14T12:06:05;-18745.25;;;26.80;38.09
24746;BME280;12845;52.042;6.838;2023-05-14T12:08:31;-18747.28;;;26.88;37.85
24746;BME280;12845;52.042;6.838;2023-05-14T12:10:57;-18747.94;;;26.90;34.46
24746;BME280;12845;52.042;6.838;2023-05-14T12:13:25;-18749.84;;;26.97;35.53
24746;BME280;12845;52.042;6.838;2023-05-14T12:15:55;-18751.59;;;27.04;36.46
24746;BME280;12845;52.042;6.838;2023-05-14T12:18:20;-18755.66;;;27.19;36.83
24746;BME280;12845;52.042;6.838;2023-05-14T12:20:49;-18754.56;;;27.15;36.66
24746;BME280;12845;52.042;6.838;2023-05-14T12:23:16;-18753.34;;;27.11;37.19
24746;BME280;12845;52.042;6.838;2023-05-14T12:25:50;-18753.75;;;27.12;34.89
24746;BME280;12845;52.042;6.838;2023-05-14T12:28:16;-18756.88;;;27.24;35.37
24746;BME280;12845;52.042;6.838;2023-05-14T12:30:41;-18754.28;;;27.14;35.58
24746;BME280;12845;52.042;6.838;2023-05-14T12:33:07;-18762.41;;;27.45;34.53
24746;BME280;12845;52.042;6.838;2023-05-14T12:35:32;-18752.25;;;27.07;34.05
24746;BME280;12845;52.042;6.838;2023-05-14T12:37:57;-18750.25;;;26.99;34.32
24746;BME280;12845;52.042;6.838;2023-05-14T12:40:23;-18757.00;;;27.25;33.91
24746;BME280;12845;52.042;6.838;2023-05-14T12:42:48;-18755.66;;;27.19;35.41
24746;BME280;12845;52.042;6.838;2023-05-14T12:45:13;-18758.88;;;27.32;35.06
24746;BME280;12845;52.042;6.838;2023-05-14T12:47:39;-18761.06;;;27.40;35.08
24746;BME280;12845;52.042;6.838;2023-05-14T12:50:04;-18762.66;;;27.46;34.31